Estancia La Verde, Argentina
Current Conditions -  °F | °C
As of 11:00 PM on Thursday 18 Dec 2014 (Local Time) from SANT Reporting Station
Scattered Clouds Scattered Clouds  
Wind Chill: 24°   Ceiling: Unl
Heat Index: 24°   Visibility: 6mi
Dew Point: 19°   Wind: 5mph
Humidity: 73%   Direction: 50°NE
Pressure: 29.88"   Gusts: NA
Location:  27.04°S, 64.38°W
Report Text: SANT 190200Z 05004KT 9999 FEW045 SCT10024/19 Q1012
Loading
Personal Weather Stations






























Interactive Weather Map New forecast layout! Learn more

10-Day Weather Forecast

Advertisements
Track Severe Weather on mobile